createdAt,value
2023-03-11T00:00:48.908Z,98325.55
2023-03-11T00:03:18.814Z,98325.35
2023-03-11T00:05:46.954Z,98316.61
2023-03-11T00:08:23.269Z,98314.48
2023-03-11T00:10:53.264Z,98307.41
2023-03-11T00:13:23.610Z,98304.91
2023-03-11T00:15:55.870Z,98304.21
2023-03-11T00:18:31.839Z,98298.33
2023-03-11T00:21:00.982Z,98299.89
2023-03-11T00:23:30.129Z,98302.48
2023-03-11T00:25:59.999Z,98300.02
2023-03-11T00:28:29.738Z,98296.77
2023-03-11T00:30:59.908Z,98289.16
2023-03-11T00:33:29.576Z,98288.11
2023-03-11T00:35:58.929Z,98282.52
2023-03-11T00:38:27.892Z,98273.50
2023-03-11T00:40:56.155Z,98273.72
2023-03-11T00:43:24.953Z,98268.92
2023-03-11T00:45:53.387Z,98267.95
2023-03-11T00:48:23.754Z,98262.27
2023-03-11T00:50:53.055Z,98255.38
2023-03-11T00:53:25.020Z,98251.77
2023-03-11T00:55:53.562Z,98252.00
2023-03-11T00:58:27.424Z,98250.59
2023-03-11T01:00:57.606Z,98241.74
2023-03-11T01:03:26.405Z,98238.32
2023-03-11T01:05:56.243Z,98234.70
2023-03-11T01:08:27.387Z,98227.54
2023-03-11T01:10:57.605Z,98223.33
2023-03-11T01:13:27.117Z,98219.73
2023-03-11T01:15:56.851Z,98219.25
2023-03-11T01:18:25.230Z,98220.40
2023-03-11T01:20:55.341Z,98213.70
2023-03-11T01:23:23.622Z,98213.04
2023-03-11T01:25:51.889Z,98208.59
2023-03-11T01:28:20.236Z,98210.63
2023-03-11T01:30:48.846Z,98209.18
2023-03-11T01:33:19.275Z,98209.70
2023-03-11T01:35:49.613Z,98205.61
2023-03-11T01:38:18.188Z,98202.09
2023-03-11T01:40:48.519Z,98199.80
2023-03-11T01:43:40.877Z,98196.65
2023-03-11T01:46:25.668Z,98197.30
2023-03-11T01:48:55.691Z,98194.59
2023-03-11T01:51:43.906Z,98195.19
2023-03-11T01:54:17.531Z,98195.67
2023-03-11T01:56:46.862Z,98189.00
2023-03-11T01:59:19.994Z,98183.06
2023-03-11T02:01:52.681Z,98184.98
2023-03-11T02:04:22.075Z,98180.84
2023-03-11T02:06:53.084Z,98181.52
2023-03-11T02:09:24.460Z,98176.23
2023-03-11T02:11:54.791Z,98171.98
2023-03-11T02:14:23.887Z,98174.19
2023-03-11T02:16:57.296Z,98173.78
2023-03-11T02:19:38.449Z,98170.43
2023-03-11T02:22:07.257Z,98171.69
2023-03-11T02:24:39.560Z,98165.48
2023-03-11T02:27:16.346Z,98167.46
2023-03-11T02:29:50.414Z,98168.55
2023-03-11T02:32:20.076Z,98162.42
2023-03-11T02:34:48.414Z,98162.87
2023-03-11T02:37:17.302Z,98164.55
2023-03-11T02:39:52.061Z,98156.98
2023-03-11T02:42:30.973Z,98159.85
2023-03-11T02:45:06.400Z,98154.41
2023-03-11T02:47:34.511Z,98153.43
2023-03-11T02:50:06.659Z,98150.17
2023-03-11T02:52:35.227Z,98145.23
2023-03-11T02:55:03.610Z,98144.81
2023-03-11T02:57:32.192Z,98137.94
2023-03-11T03:00:06.519Z,98136.81
2023-03-11T03:02:37.866Z,98128.25
2023-03-11T03:05:07.782Z,98121.91
2023-03-11T03:07:37.285Z,98116.48
2023-03-11T03:10:07.097Z,98115.98
2023-03-11T03:12:37.542Z,98116.86
2023-03-11T03:15:07.521Z,98109.46
2023-03-11T03:17:36.360Z,98110.97
2023-03-11T03:20:11.408Z,98107.63
2023-03-11T03:22:43.650Z,98103.36
2023-03-11T03:25:13.072Z,98098.40
2023-03-11T03:27:42.671Z,98088.36
2023-03-11T03:30:11.867Z,98089.42
2023-03-11T03:32:41.145Z,98085.63
2023-03-11T03:35:12.632Z,98082.91
2023-03-11T03:38:01.595Z,98080.55
2023-03-11T03:40:30.891Z,98076.96
2023-03-11T03:43:00.405Z,98072.17
2023-03-11T03:45:29.272Z,98064.52
2023-03-11T03:47:57.757Z,98061.33
2023-03-11T03:50:26.767Z,98060.31
2023-03-11T03:52:56.047Z,98053.17
2023-03-11T03:55:24.599Z,98048.18
2023-03-11T03:57:53.021Z,98043.58
2023-03-11T04:00:23.367Z,98039.48
2023-03-11T04:02:54.813Z,98035.11
2023-03-11T04:05:27.910Z,98031.42
2023-03-11T04:07:56.586Z,98026.16
2023-03-11T04:10:24.852Z,98022.06
2023-03-11T04:12:53.641Z,98017.64
2023-03-11T04:15:22.136Z,98015.02
2023-03-11T04:17:51.509Z,98006.00
2023-03-11T04:20:20.322Z,98007.77
2023-03-11T04:22:49.751Z,98002.08
2023-03-11T04:25:18.313Z,98004.48
2023-03-11T04:27:50.272Z,98008.52
2023-03-11T04:30:19.551Z,98001.31
2023-03-11T04:32:48.527Z,98000.23
2023-03-11T04:35:17.260Z,97996.61
2023-03-11T04:37:46.866Z,97992.02
2023-03-11T04:40:15.452Z,97987.60
2023-03-11T04:42:44.058Z,97983.38
2023-03-11T04:45:13.438Z,97977.34
2023-03-11T04:47:42.813Z,97973.46
2023-03-11T04:50:11.542Z,97972.41
2023-03-11T04:52:40.337Z,97968.74
2023-03-11T04:55:09.748Z,97964.83
2023-03-11T04:57:38.952Z,97962.85
2023-03-11T05:00:12.370Z,97958.59
2023-03-11T05:02:42.146Z,97955.75
2023-03-11T05:05:10.730Z,97954.73
2023-03-11T05:07:39.305Z,97952.88
2023-03-11T05:10:10.245Z,97949.24
2023-03-11T05:12:38.721Z,97951.88
2023-03-11T05:15:08.433Z,97945.17
2023-03-11T05:17:37.536Z,97946.00
2023-03-11T05:20:08.057Z,97942.41
2023-03-11T05:22:38.798Z,97935.89
2023-03-11T05:25:07.794Z,97933.58
2023-03-11T05:27:36.510Z,97934.34
2023-03-11T05:30:07.382Z,97927.67
2023-03-11T05:32:36.752Z,97924.73
2023-03-11T05:35:07.557Z,97920.24
2023-03-11T05:37:39.358Z,97918.69
2023-03-11T05:40:11.270Z,97921.39
2023-03-11T05:42:41.533Z,97915.09
2023-03-11T05:45:10.824Z,97914.55
2023-03-11T05:47:42.571Z,97908.14
2023-03-11T05:50:12.120Z,97900.98
2023-03-11T05:52:41.590Z,97907.14
2023-03-11T05:55:12.427Z,97910.75
2023-03-11T05:57:46.950Z,97912.62
2023-03-11T06:00:16.363Z,97908.41
2023-03-11T06:02:53.017Z,97894.04
2023-03-11T06:05:21.844Z,97890.46
2023-03-11T06:07:50.974Z,97891.76
2023-03-11T06:10:20.321Z,97896.64
2023-03-11T06:12:48.808Z,97897.50
2023-03-11T06:15:30.016Z,97902.36
2023-03-11T06:17:58.262Z,97903.96
2023-03-11T06:20:28.804Z,97897.66
2023-03-11T06:22:58.396Z,97899.70
2023-03-11T06:25:26.854Z,97895.70
2023-03-11T06:27:56.285Z,97889.63
2023-03-11T06:30:25.622Z,97888.67
2023-03-11T06:33:08.206Z,97888.83
2023-03-11T06:35:37.072Z,97889.16
2023-03-11T06:38:05.475Z,97886.49
2023-03-11T06:40:34.468Z,97877.92
2023-03-11T06:43:02.854Z,97875.30
2023-03-11T06:45:35.755Z,97870.67
2023-03-11T06:48:04.937Z,97865.00
2023-03-11T06:50:40.027Z,97851.27
2023-03-11T06:53:08.451Z,97849.30
2023-03-11T06:55:37.255Z,97845.08
2023-03-11T06:58:07.895Z,97848.17
2023-03-11T07:00:36.865Z,97841.45
2023-03-11T07:03:05.452Z,97840.52
2023-03-11T07:05:35.185Z,97835.05
2023-03-11T07:08:06.820Z,97839.31
2023-03-11T07:10:41.037Z,97829.66
2023-03-11T07:13:10.036Z,97828.35
2023-03-11T07:15:38.620Z,97824.49
2023-03-11T07:18:08.125Z,97819.67
2023-03-11T07:20:37.134Z,97819.28
2023-03-11T07:23:05.290Z,97809.66
2023-03-11T07:25:33.879Z,97803.23
2023-03-11T07:28:02.278Z,97794.88
2023-03-11T07:30:31.662Z,97796.37
2023-03-11T07:33:01.372Z,97792.83
2023-03-11T07:35:29.838Z,97791.16
2023-03-11T07:38:01.417Z,97779.96
2023-03-11T07:40:31.107Z,97776.82
2023-03-11T07:42:59.739Z,97773.48
2023-03-11T07:45:28.738Z,97768.40
2023-03-11T07:47:57.094Z,97760.34
2023-03-11T07:50:26.491Z,97755.55
2023-03-11T07:52:54.887Z,97754.92
2023-03-11T07:55:27.654Z,97746.99
2023-03-11T07:57:56.953Z,97741.91
2023-03-11T08:00:25.234Z,97735.29
2023-03-11T08:02:53.643Z,97732.76
2023-03-11T08:05:22.399Z,97728.59
2023-03-11T08:07:53.134Z,97722.93
2023-03-11T08:10:21.864Z,97714.29
2023-03-11T08:12:51.289Z,97712.43
2023-03-11T08:15:19.525Z,97711.07
2023-03-11T08:17:49.119Z,97703.79
2023-03-11T08:20:18.004Z,97698.48
2023-03-11T08:22:58.130Z,97695.52
2023-03-11T08:25:27.054Z,97686.82
2023-03-11T08:27:55.269Z,97684.67
2023-03-11T08:30:23.941Z,97684.10
2023-03-11T08:33:03.088Z,97680.12
2023-03-11T08:35:32.228Z,97682.77
2023-03-11T08:38:01.042Z,97678.22
2023-03-11T08:40:29.424Z,97672.55
2023-03-11T08:42:58.800Z,97674.76
2023-03-11T08:45:27.344Z,97676.67
2023-03-11T08:47:55.995Z,97674.42
2023-03-11T08:50:24.691Z,97671.09
2023-03-11T08:52:53.167Z,97665.02
2023-03-11T08:55:26.214Z,97669.23
2023-03-11T08:57:55.053Z,97668.71
2023-03-11T09:00:23.952Z,97666.59
2023-03-11T09:02:52.717Z,97647.45
2023-03-11T09:05:21.415Z,97652.27
2023-03-11T09:07:51.152Z,97645.50
2023-03-11T09:10:19.312Z,97643.13
2023-03-11T09:12:49.537Z,97634.57
2023-03-11T09:15:18.901Z,97628.76
2023-03-11T09:17:47.516Z,97626.15
2023-03-11T09:20:18.360Z,97620.06
2023-03-11T09:22:47.119Z,97618.80
2023-03-11T09:25:15.665Z,97615.86
2023-03-11T09:27:45.163Z,97610.31
2023-03-11T09:30:14.031Z,97599.45
2023-03-11T09:32:42.339Z,97595.44
2023-03-11T09:35:13.236Z,97592.00
2023-03-11T09:37:41.520Z,97589.10
2023-03-11T09:40:18.103Z,97584.44
2023-03-11T09:42:57.894Z,97572.15
2023-03-11T09:45:28.318Z,97565.59
2023-03-11T09:48:27.426Z,97569.06
2023-03-11T09:51:00.601Z,97554.59
2023-03-11T09:53:42.629Z,97552.16
2023-03-11T09:56:13.421Z,97541.32
2023-03-11T09:58:47.212Z,97530.02
2023-03-11T10:01:17.279Z,97535.48
2023-03-11T10:03:45.493Z,97534.00
2023-03-11T10:06:16.049Z,97533.71
2023-03-11T10:09:13.007Z,97527.88
2023-03-11T10:12:02.066Z,97538.52
2023-03-11T10:15:07.219Z,97539.22
2023-03-11T10:17:43.377Z,97537.48
2023-03-11T10:20:15.143Z,97535.44
2023-03-11T10:23:02.170Z,97530.81
2023-03-11T10:25:42.222Z,97516.58
2023-03-11T10:28:13.194Z,97512.02
2023-03-11T10:30:58.281Z,97512.26
2023-03-11T10:33:31.614Z,97511.09
2023-03-11T10:36:04.132Z,97503.44
2023-03-11T10:38:51.919Z,97508.24
2023-03-11T10:41:32.030Z,97509.73
2023-03-11T10:44:07.655Z,97504.61
2023-03-11T10:46:37.298Z,97497.27
2023-03-11T10:49:08.801Z,97486.22
2023-03-11T10:51:39.855Z,97481.38
2023-03-11T10:54:07.979Z,97474.55
2023-03-11T10:56:37.501Z,97464.48
2023-03-11T10:59:19.445Z,97460.20
2023-03-11T11:02:04.520Z,97457.52
2023-03-11T11:04:37.410Z,97449.86
2023-03-11T11:07:21.003Z,97447.19
2023-03-11T11:10:10.048Z,97437.55
2023-03-11T11:12:59.152Z,97421.91
2023-03-11T11:15:33.998Z,97419.58
2023-03-11T11:18:17.133Z,97416.27
2023-03-11T11:21:16.286Z,97414.33
2023-03-11T11:23:48.999Z,97411.13
2023-03-11T11:26:20.532Z,97407.23
2023-03-11T11:29:10.174Z,97407.21
2023-03-11T11:31:47.360Z,97395.88
2023-03-11T11:34:34.760Z,97392.96
2023-03-11T11:37:05.564Z,97391.02
2023-03-11T11:41:22.177Z,97383.13
2023-03-11T11:44:05.719Z,97380.55
2023-03-11T11:46:43.892Z,97376.42
2023-03-11T11:49:19.362Z,97373.46
2023-03-11T11:51:52.703Z,97374.73
2023-03-11T11:54:39.108Z,97372.35
2023-03-11T11:57:15.553Z,97372.72
2023-03-11T11:59:44.442Z,97367.38
2023-03-11T12:02:51.584Z,97367.19
2023-03-11T12:05:33.801Z,97370.15
2023-03-11T12:08:07.006Z,97367.30
2023-03-11T12:10:55.258Z,97358.45
2023-03-11T12:13:51.302Z,97359.30
2023-03-11T12:16:38.842Z,97357.24
2023-03-11T12:19:18.386Z,97355.67
2023-03-11T12:22:06.816Z,97352.16
2023-03-11T12:24:56.956Z,97349.70
2023-03-11T12:27:32.162Z,97344.55
2023-03-11T12:30:05.272Z,97345.25
2023-03-11T12:32:38.366Z,97345.25
2023-03-11T12:35:19.328Z,97338.83
2023-03-11T12:37:55.881Z,97340.60
2023-03-11T12:41:03.295Z,97335.60
2023-03-11T12:43:36.233Z,97333.28
2023-03-11T12:46:05.573Z,97331.79
2023-03-11T12:48:54.395Z,97331.74
2023-03-11T12:51:35.185Z,97329.00
2023-03-11T12:54:31.419Z,97318.55
2023-03-11T12:57:01.490Z,97315.73
2023-03-11T12:59:48.061Z,97312.70
2023-03-11T13:02:38.077Z,97310.08
2023-03-11T13:05:07.783Z,97307.50
2023-03-11T13:07:46.370Z,97303.83
2023-03-11T13:10:30.322Z,97302.59
2023-03-11T13:12:58.815Z,97301.30
2023-03-11T13:15:33.967Z,97299.73
2023-03-11T13:18:05.389Z,97294.08
2023-03-11T13:20:41.491Z,97291.16
2023-03-11T13:23:12.778Z,97293.76
2023-03-11T13:25:43.139Z,97292.33
2023-03-11T13:28:46.116Z,97287.20
2023-03-11T13:31:17.110Z,97282.76
2023-03-11T13:33:45.353Z,97279.45
2023-03-11T13:36:32.313Z,97280.91
2023-03-11T13:39:19.165Z,97278.00
2023-03-11T13:41:47.885Z,97273.95
2023-03-11T13:44:19.141Z,97270.72
2023-03-11T13:47:04.478Z,97268.22
2023-03-11T13:49:40.639Z,97267.48
2023-03-11T13:52:17.569Z,97269.58
2023-03-11T13:54:48.577Z,97262.30
2023-03-11T13:57:22.509Z,97260.11
2023-03-11T13:59:55.101Z,97261.27
2023-03-11T14:02:26.829Z,97255.15
2023-03-11T14:04:58.485Z,97256.34
2023-03-11T14:07:31.892Z,97255.59
2023-03-11T14:10:19.595Z,97250.58
2023-03-11T14:12:48.601Z,97250.75
2023-03-11T14:15:27.135Z,97254.33
2023-03-11T14:17:56.604Z,97253.08
2023-03-11T14:20:25.705Z,97251.73
2023-03-11T14:22:55.335Z,97249.40
2023-03-11T14:25:28.314Z,97248.83
2023-03-11T14:27:59.151Z,97249.75
2023-03-11T14:30:32.341Z,97251.52
2023-03-11T14:33:14.788Z,97252.52
2023-03-11T14:35:43.454Z,97252.22
2023-03-11T14:38:22.678Z,97252.30
2023-03-11T14:40:55.810Z,97252.20
2023-03-11T14:43:38.897Z,97251.27
2023-03-11T14:46:07.020Z,97249.19
2023-03-11T14:48:37.645Z,97248.98
2023-03-11T14:51:11.104Z,97250.09
2023-03-11T14:53:47.951Z,97247.05
2023-03-11T14:56:19.287Z,97244.74
2023-03-11T14:59:07.633Z,97246.16
2023-03-11T15:01:42.156Z,97246.30
2023-03-11T15:04:38.258Z,97242.98
2023-03-11T15:07:06.441Z,97243.36
2023-03-11T15:09:35.428Z,97239.20
2023-03-11T15:12:04.524Z,97240.48
2023-03-11T15:14:35.892Z,97238.46
2023-03-11T15:17:37.787Z,97234.57
2023-03-11T15:20:43.777Z,97233.45
2023-03-11T15:23:20.146Z,97235.51
2023-03-11T15:25:49.438Z,97241.16
2023-03-11T15:28:31.974Z,97241.65
2023-03-11T15:31:17.098Z,97242.13
2023-03-11T15:33:46.849Z,97247.89
2023-03-11T15:36:39.634Z,97246.27
2023-03-11T15:39:21.395Z,97246.49
2023-03-11T15:42:02.197Z,97244.86
2023-03-11T15:44:41.624Z,97249.78
2023-03-11T15:47:20.752Z,97245.59
2023-03-11T15:49:49.065Z,97250.09
2023-03-11T15:52:19.444Z,97247.88
2023-03-11T15:54:55.516Z,97247.38
2023-03-11T15:57:26.740Z,97242.34
2023-03-11T15:59:56.555Z,97247.61
2023-03-11T16:02:30.423Z,97249.96
2023-03-11T16:05:02.288Z,97244.08
2023-03-11T16:07:39.478Z,97239.61
2023-03-11T16:10:09.870Z,97240.11
2023-03-11T16:12:42.627Z,97237.63
2023-03-11T16:15:26.876Z,97238.27
2023-03-11T16:18:00.219Z,97236.67
2023-03-11T16:20:48.631Z,97239.64
2023-03-11T16:23:25.424Z,97237.38
2023-03-11T16:25:56.227Z,97234.93
2023-03-11T16:28:25.741Z,97238.38
2023-03-11T16:30:53.855Z,97247.70
2023-03-11T16:33:22.505Z,97241.22
2023-03-11T16:35:50.930Z,97241.94
2023-03-11T16:38:23.411Z,97242.06
2023-03-11T16:40:56.264Z,97248.66
2023-03-11T16:43:24.556Z,97245.98
2023-03-11T16:45:55.062Z,97246.83
2023-03-11T16:48:24.160Z,97246.92
2023-03-11T16:50:53.814Z,97248.06
2023-03-11T16:53:22.252Z,97243.56
2023-03-11T16:55:51.247Z,97250.57
2023-03-11T16:58:19.536Z,97248.49
2023-03-11T17:00:48.111Z,97251.04
2023-03-11T17:03:21.371Z,97255.25
2023-03-11T17:05:51.528Z,97249.76
2023-03-11T17:08:25.357Z,97249.09
2023-03-11T17:10:53.697Z,97249.77
2023-03-11T17:13:22.305Z,97251.23
2023-03-11T17:16:01.173Z,97246.69
2023-03-11T17:18:43.127Z,97245.90
2023-03-11T17:21:13.456Z,97242.09
2023-03-11T17:23:41.759Z,97240.80
2023-03-11T17:26:13.867Z,97242.23
2023-03-11T17:28:43.615Z,97237.35
2023-03-11T17:31:13.473Z,97239.09
2023-03-11T17:33:44.669Z,97228.04
2023-03-11T17:36:16.073Z,97222.03
2023-03-11T17:38:46.669Z,97222.30
2023-03-11T17:41:17.292Z,97225.44
2023-03-11T17:43:45.875Z,97227.98
2023-03-11T17:46:16.874Z,97232.60
2023-03-11T17:48:46.422Z,97230.02
2023-03-11T17:51:22.483Z,97228.58
2023-03-11T17:53:53.471Z,97231.05
2023-03-11T17:56:22.243Z,97233.03
2023-03-11T17:58:51.924Z,97228.70
2023-03-11T18:01:22.456Z,97226.16
2023-03-11T18:03:51.162Z,97230.63
2023-03-11T18:06:19.716Z,97230.38
2023-03-11T18:08:47.989Z,97226.75
2023-03-11T18:11:20.714Z,97216.48
2023-03-11T18:13:48.970Z,97213.35
2023-03-11T18:16:25.256Z,97215.08
2023-03-11T18:18:57.210Z,97216.77
2023-03-11T18:21:28.080Z,97206.05
2023-03-11T18:23:59.986Z,97209.55
2023-03-11T18:26:29.713Z,97215.40
2023-03-11T18:28:59.673Z,97214.25
2023-03-11T18:31:30.072Z,97211.98
2023-03-11T18:34:05.318Z,97215.04
2023-03-11T18:36:34.997Z,97222.45
2023-03-11T18:39:04.981Z,97220.98
2023-03-11T18:41:34.997Z,97219.28
2023-03-11T18:44:09.967Z,97218.64
2023-03-11T18:46:41.624Z,97215.33
2023-03-11T18:49:11.966Z,97207.84
2023-03-11T18:51:41.256Z,97218.60
2023-03-11T18:54:10.599Z,97222.71
2023-03-11T18:56:38.620Z,97230.98
2023-03-11T18:59:08.990Z,97232.53
2023-03-11T19:01:37.381Z,97233.02
2023-03-11T19:04:06.151Z,97235.22
2023-03-11T19:06:34.988Z,97238.23
2023-03-11T19:09:04.092Z,97238.89
2023-03-11T19:11:34.900Z,97243.67
2023-03-11T19:14:04.582Z,97242.70
2023-03-11T19:16:33.484Z,97240.90
2023-03-11T19:19:03.677Z,97244.47
2023-03-11T19:21:32.977Z,97246.50
2023-03-11T19:24:01.899Z,97247.69
2023-03-11T19:26:44.416Z,97245.30
2023-03-11T19:29:14.994Z,97234.42
2023-03-11T19:31:46.286Z,97234.11
2023-03-11T19:34:14.929Z,97231.99
2023-03-11T19:36:43.949Z,97228.23
2023-03-11T19:39:12.443Z,97234.12
2023-03-11T19:41:42.663Z,97231.04
2023-03-11T19:44:12.716Z,97228.10
2023-03-11T19:46:42.815Z,97232.85
2023-03-11T19:49:11.486Z,97228.23
2023-03-11T19:51:49.678Z,97226.81
2023-03-11T19:54:19.640Z,97227.31
2023-03-11T19:56:50.476Z,97231.85
2023-03-11T19:59:20.173Z,97234.49
2023-03-11T20:01:48.510Z,97237.10
2023-03-11T20:04:17.075Z,97238.82
2023-03-11T20:06:48.353Z,97237.67
2023-03-11T20:09:17.773Z,97243.45
2023-03-11T20:11:50.704Z,97240.61
2023-03-11T20:14:21.490Z,97241.67
2023-03-11T20:16:50.909Z,97248.80
2023-03-11T20:19:20.167Z,97249.59
2023-03-11T20:21:49.461Z,97251.41
2023-03-11T20:24:20.176Z,97253.93
2023-03-11T20:26:51.098Z,97252.23
2023-03-11T20:29:20.311Z,97250.20
2023-03-11T20:31:48.604Z,97251.61
2023-03-11T20:34:16.977Z,97247.87
2023-03-11T20:36:49.322Z,97243.64
2023-03-11T20:39:17.704Z,97249.00
2023-03-11T20:41:46.194Z,97249.10
2023-03-11T20:44:14.603Z,97249.48
2023-03-11T20:46:43.936Z,97253.39
2023-03-11T20:49:12.583Z,97248.04
2023-03-11T20:51:41.984Z,97248.29
2023-03-11T20:54:14.938Z,97253.13
2023-03-11T20:56:43.818Z,97258.31
2023-03-11T20:59:15.317Z,97260.23
2023-03-11T21:01:43.768Z,97258.14
2023-03-11T21:04:13.162Z,97259.48
2023-03-11T21:06:52.630Z,97252.86
2023-03-11T21:09:21.035Z,97251.28
2023-03-11T21:11:49.903Z,97248.73
2023-03-11T21:14:18.823Z,97250.11
2023-03-11T21:16:47.292Z,97252.18
2023-03-11T21:19:15.845Z,97252.45
2023-03-11T21:21:48.475Z,97253.48
2023-03-11T21:24:17.130Z,97257.65
2023-03-11T21:26:46.422Z,97256.64
2023-03-11T21:29:15.560Z,97261.20
2023-03-11T21:31:44.057Z,97260.10
2023-03-11T21:34:12.661Z,97261.33
2023-03-11T21:36:47.060Z,97260.75
2023-03-11T21:39:16.206Z,97262.87
2023-03-11T21:41:44.312Z,97268.66
2023-03-11T21:44:12.460Z,97280.34
2023-03-11T21:46:40.696Z,97282.05
2023-03-11T21:49:12.502Z,97285.52
2023-03-11T21:51:41.140Z,97286.59
2023-03-11T21:54:10.968Z,97285.92
2023-03-11T21:56:39.945Z,97282.02
2023-03-11T21:59:08.593Z,97283.25
2023-03-11T22:01:37.905Z,97286.11
2023-03-11T22:04:06.482Z,97286.10
2023-03-11T22:06:34.973Z,97293.85
2023-03-11T22:09:10.460Z,97304.61
2023-03-11T22:11:39.568Z,97303.30
2023-03-11T22:14:07.875Z,97309.95
2023-03-11T22:16:36.714Z,97310.71
2023-03-11T22:19:09.129Z,97310.10
2023-03-11T22:21:37.803Z,97312.65
2023-03-11T22:24:06.559Z,97308.48
2023-03-11T22:26:35.433Z,97311.41
2023-03-11T22:29:04.200Z,97310.77
2023-03-11T22:31:34.767Z,97315.96
2023-03-11T22:34:03.032Z,97314.11
2023-03-11T22:36:31.995Z,97326.02
2023-03-11T22:39:04.484Z,97329.95
2023-03-11T22:41:33.880Z,97336.09
2023-03-11T22:44:02.862Z,97341.92
2023-03-11T22:46:31.693Z,97348.50
2023-03-11T22:49:00.615Z,97349.23
2023-03-11T22:51:29.858Z,97357.95
2023-03-11T22:53:58.322Z,97359.20
2023-03-11T22:56:26.836Z,97358.16
2023-03-11T22:58:55.593Z,97354.95
2023-03-11T23:01:23.899Z,97353.08
2023-03-11T23:03:52.072Z,97356.39
2023-03-11T23:06:20.847Z,97364.45
2023-03-11T23:08:49.426Z,97359.69
2023-03-11T23:11:21.501Z,97359.94
2023-03-11T23:13:51.299Z,97361.30
2023-03-11T23:16:21.465Z,97360.58
2023-03-11T23:18:53.100Z,97364.20
2023-03-11T23:21:26.713Z,97365.43
2023-03-11T23:23:55.317Z,97367.21
2023-03-11T23:26:23.691Z,97372.52
2023-03-11T23:28:52.132Z,97370.02
2023-03-11T23:31:21.486Z,97366.27
2023-03-11T23:33:51.788Z,97372.63
2023-03-11T23:36:21.678Z,97377.89
2023-03-11T23:38:54.746Z,97387.06
2023-03-11T23:41:24.030Z,97391.60
2023-03-11T23:43:52.470Z,97403.63
2023-03-11T23:46:21.133Z,97406.89
2023-03-11T23:48:49.430Z,97409.10
2023-03-11T23:51:18.117Z,97407.21
2023-03-11T23:53:47.297Z,97410.84
2023-03-11T23:56:17.513Z,97404.90
2023-03-11T23:59:31.887Z,97408.98
